createdAt,value
2022-10-28T07:56:37.929Z,67.50
2022-10-28T08:11:39.250Z,67.08
2022-10-28T08:26:40.576Z,65.13
2022-10-28T08:41:41.922Z,69.71
2022-10-28T08:56:47.469Z,100.00
2022-10-28T09:11:48.813Z,84.53
2022-10-28T09:26:50.153Z,79.56
2022-10-28T09:41:51.569Z,82.42
2022-10-28T09:56:52.995Z,88.06
2022-10-28T10:11:54.349Z,68.83
2022-10-28T10:26:55.702Z,68.51
2022-10-28T10:41:57.051Z,58.43
2022-10-28T11:11:59.749Z,57.78
2022-10-28T11:27:01.111Z,73.00
2022-10-28T11:42:02.459Z,62.60
2022-10-28T11:57:03.845Z,59.75
2022-10-28T12:12:05.289Z,55.10
2022-10-28T12:27:06.647Z,59.73
2022-10-28T12:42:07.991Z,60.01
2022-10-28T12:57:09.323Z,53.17
2022-10-28T13:12:10.678Z,54.32
2022-10-28T13:27:12.045Z,61.26
2022-10-28T13:42:13.389Z,64.52
2022-10-28T13:57:14.810Z,62.53
2022-10-28T14:12:19.295Z,66.59
2022-10-28T14:27:20.636Z,68.00
2022-10-28T14:42:22.032Z,67.33
2022-10-28T14:57:23.422Z,73.42
2022-10-28T15:12:26.049Z,67.58
2022-10-28T15:27:27.444Z,67.84
2022-10-28T15:42:28.831Z,74.90
2022-10-28T15:57:30.421Z,79.81
2022-10-28T16:12:31.811Z,72.96
2022-10-28T16:27:33.207Z,85.48
2022-10-28T16:42:34.534Z,100.00
2022-10-28T16:57:38.560Z,91.89
2022-10-28T17:12:39.906Z,98.39
2022-10-28T17:27:42.167Z,100.00
2022-10-28T17:42:43.527Z,100.00
2022-10-28T17:57:45.605Z,100.00
2022-10-28T18:12:46.993Z,96.92
2022-10-28T18:27:48.391Z,100.00
2022-10-28T18:42:49.792Z,100.00
2022-10-28T18:57:51.151Z,91.51
2022-10-28T19:12:53.209Z,84.56
2022-10-28T19:27:54.994Z,89.99
2022-10-28T19:42:57.704Z,90.26
2022-10-28T19:57:59.372Z,85.60
2022-10-28T20:13:03.365Z,84.32
2022-10-28T20:28:04.908Z,91.31
2022-10-28T20:43:06.257Z,99.47
2022-10-28T20:58:09.813Z,92.44
2022-10-28T21:13:11.176Z,90.92
2022-10-28T21:28:12.577Z,100.00
2022-10-28T21:43:16.418Z,100.00
2022-10-28T21:58:17.786Z,100.00
2022-10-28T22:13:19.133Z,93.24
2022-10-28T22:28:20.477Z,87.67
2022-10-28T22:43:21.846Z,90.56
2022-10-28T22:58:23.465Z,98.08
2022-10-28T23:13:25.385Z,100.00
2022-10-28T23:28:28.191Z,98.99
2022-10-28T23:43:30.120Z,93.75
2022-10-28T23:58:31.873Z,91.16
